Caribbean Princess — ZCDG8 — position and weather

sailwx.info

Track history (hours):
 
Tides and Currents Weather Stations Pressure Air Temp Water Temp Dewpoint Dewpoint Depression Visibility Wind Speed Wind Dir Waves Ship Positions

Caribbean Princess

Operator: Princess Cruises

Last reported at 2017-May-30 02:03 UTC. Time now 2017-May-30 09:07 UTC.
Position N 55°23' W 005°00'.

Type: Passenger vessel. MMSI: 310423000.

Date/timePositionNaut miles runAvg speedWind from/ knotsBaromVisibWave heightAir tempDewpointWater temp
2017-May-30 02:03N 55°23' W 005°00'1510.6
2017-May-30 00:37N 55°14' W 005°22'212.0
2017-May-30 00:26N 55°13' W 005°25'612.6
2017-May-30 00:00N 55°07' W 005°26'613.0
2017-May-29 23:30N 55°01' W 005°26'612.7
2017-May-29 23:00N 54°54' W 005°27'612.3
2017-May-29 22:30N 54°48' W 005°25'713.6
2017-May-29 22:01N 54°44' W 005°35'612.8
2017-May-29 21:30N 54°42' W 005°45'4 8.5
2017-May-29 21:00N 54°40' W 005°51'3 5.5
2017-May-29 20:30N 54°37' W 005°54'0 0.0
2017-May-29 10:00N 54°37' W 005°54'1 1.4
2017-May-29 09:30N 54°38' W 005°53'4 8.0
2017-May-29 09:00N 54°41' W 005°49'510.1
2017-May-29 08:30N 54°43' W 005°41'612.4
2017-May-29 08:00N 54°45' W 005°31'510.6
2017-May-29 07:30N 54°45' W 005°22'611.2
2017-May-29 07:00N 54°40' W 005°17'611.8
2017-May-29 06:30N 54°35' W 005°11'611.6
2017-May-29 06:00N 54°30' W 005°05'611.6
2017-May-29 05:30N 54°25' W 004°60'612.5
2017-May-29 05:00N 54°20' W 005°03'713.6
2017-May-29 04:30N 54°14' W 005°09'713.7
2017-May-29 04:00N 54°07' W 005°14'713.6
2017-May-29 03:30N 54°01' W 005°20'813.6
2017-May-29 02:55N 53°54' W 005°26'513.2
2017-May-29 02:30N 53°49' W 005°30'1427.4
2017-May-29 02:00N 53°36' W 005°36'4 9.2 030 / 211014.010.8 13.011.111.0
2017-May-29 01:36N 53°39' W 005°39'212.8
2017-May-29 01:27N 53°37' W 005°41'613.1
2017-May-29 01:00N 53°32' W 005°46'713.7
2017-May-29 00:30N 53°26' W 005°51'713.2
2017-May-28 23:57N 53°21' W 006°00'4 8.8
2017-May-28 23:30N 53°20' W 006°06'4 7.5
2017-May-28 23:00N 53°21' W 006°13'0 0.2
2017-May-28 22:29N 53°21' W 006°13'0 0.0
2017-May-28 21:58N 53°21' W 006°13'0 0.0
2017-May-28 21:30N 53°21' W 006°13'0 0.0
2017-May-28 20:57N 53°21' W 006°13'0 0.0
2017-May-28 20:24N 53°21' W 006°13'0 0.0
2017-May-28 20:00N 53°21' W 006°13'0 0.0
2017-May-28 19:19N 53°21' W 006°13'0 0.0
2017-May-28 18:41N 53°21' W 006°13'0 0.0
2017-May-28 18:27N 53°21' W 006°13'0 0.0
2017-May-28 17:54N 53°21' W 006°13'0 0.0
2017-May-28 17:18N 53°21' W 006°13'0 0.0
2017-May-28 16:56N 53°21' W 006°13'0 0.0
2017-May-28 16:28N 53°21' W 006°13'0 0.0
2017-May-28 16:00N 53°21' W 006°13'0 0.0
2017-May-28 15:28N 53°21' W 006°13'0 0.0
2017-May-28 14:57N 53°21' W 006°13'0 0.0
2017-May-28 13:58N 53°21' W 006°13'0 0.0
2017-May-28 13:30N 53°21' W 006°13'0 0.0
2017-May-28 13:00N 53°21' W 006°13'0 0.0
2017-May-28 12:28N 53°21' W 006°13'0 0.0
2017-May-28 12:00N 53°21' W 006°13'0 0.0
2017-May-28 11:16N 53°21' W 006°13'0 0.0
2017-May-28 10:57N 53°21' W 006°13'0 0.0
2017-May-28 10:30N 53°21' W 006°13'0 0.0
2017-May-28 09:53N 53°21' W 006°13'0 0.0
2017-May-28 09:24N 53°21' W 006°13'0 0.0
2017-May-28 08:58N 53°21' W 006°13'0 0.0
2017-May-28 08:28N 53°21' W 006°13'0 0.0
2017-May-28 07:55N 53°21' W 006°13'0 0.0
2017-May-28 07:17N 53°21' W 006°13'0 0.0
2017-May-28 06:44N 53°21' W 006°13'0 0.0
2017-May-28 06:23N 53°21' W 006°13'0 0.0
2017-May-28 05:59N 53°21' W 006°13'0 0.0
2017-May-28 05:30N 53°21' W 006°13'0 0.0
2017-May-28 04:54N 53°21' W 006°13'0 0.0
2017-May-28 04:21N 53°21' W 006°13'0 0.0
2017-May-28 03:48N 53°21' W 006°13'0 0.0
2017-May-28 03:30N 53°21' W 006°13'0 0.0
2017-May-28 03:00N 53°21' W 006°13'0 0.6
2017-May-28 02:30N 53°21' W 006°12'4 7.3
2017-May-28 02:00N 53°20' W 006°06'510.2
2017-May-28 01:30N 53°21' W 005°58'713.0
2017-May-28 01:00N 53°17' W 005°49'713.5
2017-May-28 00:30N 53°12' W 005°42'3011.9
2017-May-27 22:00N 52°42' W 005°42'5224.1 300 / 241014.710.8 13.011.111.0
2017-May-27 19:51N 51°60' W 006°31'721.1
2017-May-27 19:31N 51°58' W 006°42'1020.3
2017-May-27 19:01N 51°55' W 006°58'1020.1
2017-May-27 18:31N 51°53' W 007°13'1019.9
2017-May-27 18:01N 51°50' W 007°29'7433.1
2017-May-27 18:00N 51°48' W 007°18'1634.0 250 / 71023.810.8 17.011.511.0
2017-May-27 17:31N 51°48' W 007°45'1019.7
2017-May-27 17:01N 51°45' W 008°00'917.3
2017-May-27 16:30N 51°45' W 008°14'510.2
2017-May-27 16:00N 51°50' W 008°16'1 2.9
2017-May-27 15:30N 51°51' W 008°18'0 0.0
2017-May-27 15:00N 51°51' W 008°18'0 0.0
2017-May-27 14:30N 51°51' W 008°18'0 0.0
2017-May-27 13:30N 51°51' W 008°18'0 0.0
2017-May-27 13:00N 51°51' W 008°18'0 0.0
2017-May-27 12:30N 51°51' W 008°18'0 0.0
2017-May-27 12:00N 51°51' W 008°18'0 0.0
2017-May-27 11:30N 51°51' W 008°18'0 0.0
2017-May-27 11:00N 51°51' W 008°18'0 0.0
2017-May-27 10:30N 51°51' W 008°18'0 0.0
2017-May-27 09:59N 51°51' W 008°18'0 0.0
2017-May-27 09:28N 51°51' W 008°18'0 0.0
2017-May-27 08:58N 51°51' W 008°18'0 0.0
2017-May-27 08:28N 51°51' W 008°18'0 0.0
2017-May-27 07:58N 51°51' W 008°18'0 0.0
2017-May-27 07:28N 51°51' W 008°18'0 0.0
2017-May-27 06:58N 51°51' W 008°18'0 0.5
2017-May-27 06:30N 51°51' W 008°18'3 5.1
2017-May-27 06:00N 51°49' W 008°16'612.3
2017-May-27 05:30N 51°43' W 008°13'1019.1
2017-May-27 05:00N 51°36' W 008°02'918.8
2017-May-27 04:30N 51°30' W 007°51'918.7
2017-May-27 04:00N 51°23' W 007°40'5219.2
2017-May-27 01:17N 50°48' W 006°39'3119.3
2017-May-26 23:40N 50°26' W 006°04'419.6
2017-May-26 23:29N 50°24' W 005°59'918.1
2017-May-26 23:00N 50°16' W 005°54'1019.1
2017-May-26 22:30N 50°06' W 005°54'918.8
2017-May-26 22:00N 49°57' W 005°53'10995.2
2017-May-26 22:00N 50°06' W 005°48'1725.9 300 / 141009.510.8 14.012.211.0
2017-May-26 21:21N 49°51' W 005°38'919.9
2017-May-26 20:53N 49°48' W 005°24'919.6
2017-May-26 20:26N 49°47' W 005°11'919.3
2017-May-26 20:00N 49°45' W 004°58'919.0
2017-May-26 19:30N 49°43' W 004°44'1218.8
2017-May-26 18:51N 49°41' W 004°25'818.4
2017-May-26 18:23N 49°40' W 004°12'718.4
2017-May-26 18:00N 49°38' W 004°02'918.1
2017-May-26 17:30N 49°35' W 003°48'918.4
2017-May-26 17:00N 49°32' W 003°35'918.6
2017-May-26 16:30N 49°30' W 003°21'918.9
2017-May-26 16:00N 49°28' W 003°07'24 6.7
2017-May-26 12:26N 49°28' W 002°30'0 0.1
2017-May-26 11:56N 49°28' W 002°30'0 0.1
2017-May-26 11:11N 49°28' W 002°30'0 0.0
2017-May-26 10:59N 49°28' W 002°30'0 0.0
2017-May-26 10:10N 49°28' W 002°30'0 0.0
2017-May-26 09:53N 49°28' W 002°30'0 0.1
2017-May-26 09:30N 49°28' W 002°30'0 0.0
2017-May-26 04:36N 49°28' W 002°30'0 1.0
2017-May-26 04:30N 49°28' W 002°30'7 8.2
2017-May-26 03:38N 49°23' W 002°39'416.4
2017-May-26 03:25N 49°23' W 002°44'2615.1
2017-May-26 01:42N 49°48' W 002°56'315.1
2017-May-26 01:30N 49°50' W 002°57'714.3
2017-May-26 01:01N 49°57' W 002°55'6326.2
2017-May-26 01:00N 49°54' W 002°48'714.9 100 / 301017.110.8 13.5 5.716.0
2017-May-26 00:30N 49°60' W 002°42'1019.2
2017-May-26 00:00N 50°02' W 002°27'1019.7
2017-May-25 23:30N 50°07' W 002°14'1018.8
2017-May-25 23:00N 50°12' W 002°01'1017.8
2017-May-25 22:27N 50°17' W 001°47'612.8
2017-May-25 22:00N 50°12' W 001°42'10145.5 090 / 211018.910.8 15.010.312.0
2017-May-25 21:55N 50°21' W 001°35'716.1
2017-May-25 21:30N 50°24' W 001°25'815.5
2017-May-25 21:01N 50°28' W 001°15'714.3
2017-May-25 20:31N 50°31' W 001°05'713.1
2017-May-25 20:01N 50°37' W 000°59'612.0
2017-May-25 19:30N 50°43' W 000°59'816.5
2017-May-25 19:00N 50°46' W 001°11'510.5
2017-May-25 18:30N 50°49' W 001°18'510.1
2017-May-25 18:00N 50°52' W 001°23'1 2.4
2017-May-25 17:30N 50°53' W 001°24'0 0.0
2017-May-25 17:00N 50°53' W 001°24'0 0.0
2017-May-25 16:30N 50°53' W 001°24'0 0.0
2017-May-25 16:00N 50°53' W 001°24'0 0.0
2017-May-25 15:30N 50°53' W 001°24'0 0.0
2017-May-25 15:00N 50°53' W 001°24'0 0.0
2017-May-25 14:00N 50°53' W 001°24'0 0.0
2017-May-25 13:30N 50°53' W 001°24'0 0.0
2017-May-25 13:00N 50°53' W 001°24'0 0.0
2017-May-25 12:30N 50°53' W 001°24'0 0.0
2017-May-25 12:00N 50°53' W 001°24'0 0.0
2017-May-25 11:30N 50°53' W 001°24'0 0.0
2017-May-25 10:59N 50°53' W 001°24'0 0.0
2017-May-25 10:29N 50°53' W 001°24'0 0.0
2017-May-25 09:56N 50°53' W 001°24'0 0.0
2017-May-25 09:29N 50°53' W 001°24'0 0.0
2017-May-25 08:59N 50°53' W 001°24'0 0.0
2017-May-25 08:29N 50°53' W 001°24'0 0.0
2017-May-25 07:59N 50°53' W 001°24'0 0.0
2017-May-25 07:29N 50°53' W 001°24'0 0.0
2017-May-25 06:59N 50°53' W 001°24'0 0.0
2017-May-25 06:29N 50°53' W 001°24'0 0.0
2017-May-25 05:58N 50°53' W 001°24'0 0.0
2017-May-25 05:28N 50°53' W 001°24'0 0.0
2017-May-25 04:58N 50°53' W 001°24'0 0.0
2017-May-25 04:28N 50°53' W 001°24'0 0.3
2017-May-25 04:01N 50°53' W 001°24'2 3.2
2017-May-25 03:30N 50°52' W 001°22'5 9.5
2017-May-25 03:01N 50°49' W 001°17'4 8.5
2017-May-25 02:31N 50°46' W 001°12'714.8
2017-May-25 02:00N 50°43' W 001°01'510.7
2017-May-25 01:30N 50°38' W 000°58'713.4
2017-May-25 01:01N 50°32' W 000°57'815.5
2017-May-25 00:31N 50°25' W 000°50'612.8
2017-May-25 00:00N 50°19' W 000°47'814.9
2017-May-24 23:29N 50°12' W 000°43'815.5
2017-May-24 23:00N 50°05' W 000°38'715.3
2017-May-24 22:30N 49°58' W 000°34'714.9
2017-May-24 22:00N 49°51' W 000°29'714.6
2017-May-24 21:30N 49°44' W 000°25'714.4
2017-May-24 21:01N 49°38' W 000°20'713.3
2017-May-24 20:30N 49°33' W 000°13'612.4
2017-May-24 20:00N 49°31' W 000°04'612.6
2017-May-24 19:30N 49°29' E 000°05'1 1.7
2017-May-24 19:00N 49°29' E 000°06'0 0.0
2017-May-24 18:30N 49°29' E 000°06'0 0.0
2017-May-24 18:00N 49°29' E 000°06'0 0.0
2017-May-24 17:30N 49°29' E 000°06'0 0.0
2017-May-24 17:00N 49°29' E 000°06'0 0.0
2017-May-24 16:30N 49°29' E 000°06'0 0.0
2017-May-24 16:00N 49°29' E 000°06'0 0.0
2017-May-24 15:29N 49°29' E 000°06'0 0.0
2017-May-24 14:59N 49°29' E 000°06'0 0.0
2017-May-24 14:30N 49°29' E 000°06'0 0.0
2017-May-24 13:30N 49°29' E 000°06'0 0.0
2017-May-24 13:00N 49°29' E 000°06'0 0.0
2017-May-24 12:30N 49°29' E 000°06'0 0.0
2017-May-24 11:58N 49°29' E 000°06'0 0.0
2017-May-24 11:30N 49°29' E 000°06'0 0.0
2017-May-24 11:00N 49°29' E 000°06'0 0.0
2017-May-24 10:30N 49°29' E 000°06'0 0.0
2017-May-24 10:00N 49°29' E 000°06'0 0.0
2017-May-24 09:27N 49°29' E 000°06'0 0.0
2017-May-24 08:58N 49°29' E 000°06'0 0.0
2017-May-24 08:28N 49°29' E 000°06'0 0.0
2017-May-24 07:57N 49°29' E 000°06'0 0.0
2017-May-24 07:29N 49°29' E 000°06'0 0.0
2017-May-24 06:59N 49°29' E 000°06'0 0.0
2017-May-24 06:28N 49°29' E 000°06'0 0.0
2017-May-24 05:58N 49°29' E 000°06'0 0.0
2017-May-24 05:27N 49°29' E 000°06'0 0.0
2017-May-24 05:00N 49°29' E 000°06'0 0.2
2017-May-24 04:30N 49°29' E 000°07'0 0.8
2017-May-24 04:00N 49°29' E 000°06'510.6
2017-May-24 03:30N 49°31' W 000°02'611.1
2017-May-24 03:00N 49°32' W 000°10'510.9
2017-May-24 02:30N 49°34' W 000°18'917.2
2017-May-24 02:00N 49°42' W 000°22'917.4
2017-May-24 01:30N 49°51' W 000°21'918.4
2017-May-24 01:00N 49°60' W 000°16'918.7
2017-May-24 00:30N 50°07' W 000°07'917.7
2017-May-24 00:00N 50°16' W 000°04'917.6
2017-May-23 23:30N 50°24' W 000°06'917.4
2017-May-23 23:00N 50°29' E 000°06'815.3
2017-May-23 22:30N 50°31' E 000°18'714.5
2017-May-23 22:00N 50°33' E 000°29'713.5
2017-May-23 21:30N 50°36' E 000°38'713.4
2017-May-23 20:59N 50°40' E 000°47'613.2
2017-May-23 20:30N 50°44' E 000°55'713.2
2017-May-23 20:00N 50°48' E 001°04'613.2
2017-May-23 19:30N 50°52' E 001°12'714.2
2017-May-23 19:00N 50°57' E 001°20'816.0
2017-May-23 18:30N 51°02' E 001°29'917.4
2017-May-23 18:00N 51°09' E 001°38'816.8
2017-May-23 17:30N 51°15' E 001°47'816.5
2017-May-23 17:00N 51°23' E 001°51'815.2
2017-May-23 16:30N 51°31' E 001°52'714.9
2017-May-23 16:01N 51°37' E 001°47'714.5
2017-May-23 15:31N 51°44' E 001°45'714.2
2017-May-23 15:00N 51°51' E 001°45'713.4
2017-May-23 14:30N 51°58' E 001°45'2038.7
2017-May-23 14:00N 52°18' E 001°48'715.1 210 / 271020.710.8 15.2-4.112.0
2017-May-23 13:30N 52°11' E 001°47'2212.2
2017-May-23 11:43N 52°32' E 001°56'312.2
2017-May-23 11:30N 52°34' E 001°57'612.3
2017-May-23 11:00N 52°40' E 001°57'612.4
2017-May-23 10:30N 52°45' E 001°51'713.3
2017-May-23 10:00N 52°51' E 001°45'713.7
2017-May-23 09:30N 52°56' E 001°36'816.5
2017-May-23 09:00N 53°03' E 001°30'917.3
2017-May-23 08:30N 53°10' E 001°21'917.4
2017-May-23 08:00N 53°17' E 001°14'917.4
2017-May-23 07:30N 53°25' E 001°06'3624.0
2017-May-23 06:00N 53°54' E 000°30'2 4.4 260 / 201016.310.8 14.0 8.010.0
2017-May-23 05:26N 53°55' E 000°34'818.2
2017-May-23 05:00N 54°02' E 000°27'918.5
2017-May-23 04:30N 54°09' E 000°18'918.7
2017-May-23 04:00N 54°17' E 000°10'918.9
2017-May-23 03:30N 54°25' E 000°01'1019.1
2017-May-23 03:00N 54°33' W 000°08'1019.2
2017-May-23 02:30N 54°41' W 000°17'1019.1
2017-May-23 02:00N 54°49' W 000°26'1019.0
2017-May-23 01:30N 54°57' W 000°36'1019.1
2017-May-23 01:00N 55°05' W 000°45'7681.0
2017-May-23 01:00N 55°12' W 000°48'4 7.2 270 / 211012.510.8 11.6 6.111.0
2017-May-23 00:30N 55°13' W 000°54'918.9
2017-May-23 00:00N 55°21' W 001°04'918.8
2017-May-22 23:30N 55°29' W 001°12'918.9
2017-May-22 23:00N 55°37' W 001°21'918.6
2017-May-22 22:30N 55°44' W 001°31'918.5
2017-May-22 22:01N 55°51' W 001°42'9555.8
2017-May-22 22:00N 55°42' W 001°36'1837.6 270 / 291011.2 5.4 12.0 7.9 9.0
2017-May-22 21:30N 55°57' W 001°53'1017.5
2017-May-22 20:57N 56°03' W 002°07'817.9
2017-May-22 20:30N 56°06' W 002°21'917.5
2017-May-22 20:00N 56°07' W 002°36'917.5
2017-May-22 19:30N 56°05' W 002°52'816.2
2017-May-22 19:00N 56°03' W 003°05'713.0
2017-May-22 18:30N 56°02' W 003°17'3 0.7
2017-May-22 13:36N 56°00' W 003°23'0 0.1
2017-May-22 13:18N 56°00' W 003°23'0 0.1
2017-May-22 12:51N 56°00' W 003°23'0 0.1
2017-May-22 12:30N 56°00' W 003°23'0 0.0
2017-May-22 12:00N 56°00' W 003°23'0 0.0
2017-May-22 11:21N 56°00' W 003°23'0 0.0
2017-May-22 10:51N 56°00' W 003°23'0 0.1
2017-May-22 10:30N 56°00' W 003°23'0 0.0
2017-May-22 10:00N 56°00' W 003°23'0 0.0
2017-May-22 09:17N 56°00' W 003°23'0 0.1
2017-May-22 08:59N 56°00' W 003°23'0 0.0
2017-May-22 08:20N 56°00' W 003°23'0 0.0
2017-May-22 07:59N 56°00' W 003°23'0 0.0
2017-May-22 07:23N 56°00' W 003°23'0 0.1
2017-May-22 06:18N 56°00' W 003°22'2 7.1
2017-May-22 06:00N 56°01' W 003°19'713.9
2017-May-22 05:30N 56°03' W 003°07'611.1
2017-May-22 05:00N 56°05' W 002°58'612.6
2017-May-22 04:30N 56°07' W 002°47'612.5
2017-May-22 04:01N 56°09' W 002°36'714.7
2017-May-22 03:31N 56°13' W 002°25'917.2
2017-May-22 03:01N 56°20' W 002°17'917.0
2017-May-22 02:31N 56°28' W 002°09'817.0
2017-May-22 02:01N 56°35' W 002°02'816.9
2017-May-22 01:31N 56°43' W 001°56'1117.2
2017-May-22 00:53N 56°53' W 001°48'717.3
2017-May-22 00:30N 56°59' W 001°43'817.4
2017-May-22 00:01N 57°07' W 001°39'917.4
2017-May-21 23:30N 57°15' W 001°36'917.8
2017-May-21 23:01N 57°24' W 001°36'918.3
2017-May-21 22:31N 57°33' W 001°36'918.5
2017-May-21 22:01N 57°43' W 001°39'713.8
2017-May-21 21:30N 57°47' W 001°50'918.9
2017-May-21 21:00N 57°47' W 002°07'4422.0
2017-May-21 19:00N 57°42' W 003°30'15 0.9 180 / 111021.710.8 15.0 6.910.0
2017-May-21 01:00N 57°54' W 003°12'26 8.7 200 / 181014.310.8 9.4 5.710.0
2017-May-20 22:00N 58°12' W 002°36'6215.2 170 / 221012.610.8 10.0 7.910.0
2017-May-20 21:58N 58°17' W 002°40'6 9.3
2017-May-20 21:19N 58°23' W 002°38'3 9.3
2017-May-20 21:00N 58°26' W 002°38'5 8.2
2017-May-20 20:22N 58°31' W 002°40'4 9.3
2017-May-20 19:59N 58°33' W 002°46'612.3
2017-May-20 19:30N 58°38' W 002°53'815.9
2017-May-20 19:00N 58°43' W 003°05'816.3
2017-May-20 18:31N 58°43' W 003°21'815.6
2017-May-20 18:00N 58°43' W 003°36'815.6
2017-May-20 17:30N 58°43' W 003°51'815.3
2017-May-20 17:00N 58°43' W 004°06'815.3
2017-May-20 16:30N 58°43' W 004°20'815.6
2017-May-20 16:00N 58°43' W 004°35'815.5
2017-May-20 15:30N 58°43' W 004°50'1913.0
2017-May-20 14:00N 58°32' W 005°22'3115.7
2017-May-20 12:04N 58°06' W 005°51'215.3
2017-May-20 11:57N 58°04' W 005°52'715.5
2017-May-20 11:30N 57°58' W 005°59'7213.1
2017-May-20 06:00N 56°54' W 007°00'5716.7 360 / 101009.710.8 10.0 7.911.0
2017-May-20 02:35N 55°57' W 007°09'116.5
2017-May-20 02:30N 55°56' W 007°08'  
Track history (hours):
 
Tides and Currents Weather Stations Pressure Air Temp Water Temp Dewpoint Dewpoint Depression Visibility Wind Speed Wind Dir Waves Ship Positions

Caribbean Princess

Operator: Princess Cruises

Last reported at 2017-May-30 02:03 UTC. Time now 2017-May-30 09:07 UTC.
Position N 55°23' W 005°00'.

Type: Passenger vessel. MMSI: 310423000.

Date/timePositionNaut miles runAvg speedWind from/ knotsBaromVisibWave heightAir tempDewpointWater temp
2017-May-30 02:03N 55°23' W 005°00'1510.6
2017-May-30 00:37N 55°14' W 005°22'212.0
2017-May-30 00:26N 55°13' W 005°25'612.6
2017-May-30 00:00N 55°07' W 005°26'613.0
2017-May-29 23:30N 55°01' W 005°26'612.7
2017-May-29 23:00N 54°54' W 005°27'612.3
2017-May-29 22:30N 54°48' W 005°25'713.6
2017-May-29 22:01N 54°44' W 005°35'612.8
2017-May-29 21:30N 54°42' W 005°45'4 8.5
2017-May-29 21:00N 54°40' W 005°51'3 5.5
2017-May-29 20:30N 54°37' W 005°54'0 0.0
2017-May-29 10:00N 54°37' W 005°54'1 1.4
2017-May-29 09:30N 54°38' W 005°53'4 8.0
2017-May-29 09:00N 54°41' W 005°49'510.1
2017-May-29 08:30N 54°43' W 005°41'612.4
2017-May-29 08:00N 54°45' W 005°31'510.6
2017-May-29 07:30N 54°45' W 005°22'611.2
2017-May-29 07:00N 54°40' W 005°17'611.8
2017-May-29 06:30N 54°35' W 005°11'611.6
2017-May-29 06:00N 54°30' W 005°05'611.6
2017-May-29 05:30N 54°25' W 004°60'612.5
2017-May-29 05:00N 54°20' W 005°03'713.6
2017-May-29 04:30N 54°14' W 005°09'713.7
2017-May-29 04:00N 54°07' W 005°14'713.6
2017-May-29 03:30N 54°01' W 005°20'813.6
2017-May-29 02:55N 53°54' W 005°26'513.2
2017-May-29 02:30N 53°49' W 005°30'1427.4
2017-May-29 02:00N 53°36' W 005°36'4 9.2 030 / 211014.010.8 13.011.111.0
2017-May-29 01:36N 53°39' W 005°39'212.8
2017-May-29 01:27N 53°37' W 005°41'613.1
2017-May-29 01:00N 53°32' W 005°46'713.7
2017-May-29 00:30N 53°26' W 005°51'713.2
2017-May-28 23:57N 53°21' W 006°00'4 8.8
2017-May-28 23:30N 53°20' W 006°06'4 7.5
2017-May-28 23:00N 53°21' W 006°13'0 0.2
2017-May-28 22:29N 53°21' W 006°13'0 0.0
2017-May-28 21:58N 53°21' W 006°13'0 0.0
2017-May-28 21:30N 53°21' W 006°13'0 0.0
2017-May-28 20:57N 53°21' W 006°13'0 0.0
2017-May-28 20:24N 53°21' W 006°13'0 0.0
2017-May-28 20:00N 53°21' W 006°13'0 0.0
2017-May-28 19:19N 53°21' W 006°13'0 0.0
2017-May-28 18:41N 53°21' W 006°13'0 0.0
2017-May-28 18:27N 53°21' W 006°13'0 0.0
2017-May-28 17:54N 53°21' W 006°13'0 0.0
2017-May-28 17:18N 53°21' W 006°13'0 0.0
2017-May-28 16:56N 53°21' W 006°13'0 0.0
2017-May-28 16:28N 53°21' W 006°13'0 0.0
2017-May-28 16:00N 53°21' W 006°13'0 0.0
2017-May-28 15:28N 53°21' W 006°13'0 0.0
2017-May-28 14:57N 53°21' W 006°13'0 0.0
2017-May-28 13:58N 53°21' W 006°13'0 0.0
2017-May-28 13:30N 53°21' W 006°13'0 0.0
2017-May-28 13:00N 53°21' W 006°13'0 0.0
2017-May-28 12:28N 53°21' W 006°13'0 0.0
2017-May-28 12:00N 53°21' W 006°13'0 0.0
2017-May-28 11:16N 53°21' W 006°13'0 0.0
2017-May-28 10:57N 53°21' W 006°13'0 0.0
2017-May-28 10:30N 53°21' W 006°13'0 0.0
2017-May-28 09:53N 53°21' W 006°13'0 0.0
2017-May-28 09:24N 53°21' W 006°13'0 0.0
2017-May-28 08:58N 53°21' W 006°13'0 0.0
2017-May-28 08:28N 53°21' W 006°13'0 0.0
2017-May-28 07:55N 53°21' W 006°13'0 0.0
2017-May-28 07:17N 53°21' W 006°13'0 0.0
2017-May-28 06:44N 53°21' W 006°13'0 0.0
2017-May-28 06:23N 53°21' W 006°13'0 0.0
2017-May-28 05:59N 53°21' W 006°13'0 0.0
2017-May-28 05:30N 53°21' W 006°13'0 0.0
2017-May-28 04:54N 53°21' W 006°13'0 0.0
2017-May-28 04:21N 53°21' W 006°13'0 0.0
2017-May-28 03:48N 53°21' W 006°13'0 0.0
2017-May-28 03:30N 53°21' W 006°13'0 0.0
2017-May-28 03:00N 53°21' W 006°13'0 0.6
2017-May-28 02:30N 53°21' W 006°12'4 7.3
2017-May-28 02:00N 53°20' W 006°06'510.2
2017-May-28 01:30N 53°21' W 005°58'713.0
2017-May-28 01:00N 53°17' W 005°49'713.5
2017-May-28 00:30N 53°12' W 005°42'3011.9
2017-May-27 22:00N 52°42' W 005°42'5224.1 300 / 241014.710.8 13.011.111.0
2017-May-27 19:51N 51°60' W 006°31'721.1
2017-May-27 19:31N 51°58' W 006°42'1020.3
2017-May-27 19:01N 51°55' W 006°58'1020.1
2017-May-27 18:31N 51°53' W 007°13'1019.9
2017-May-27 18:01N 51°50' W 007°29'7433.1
2017-May-27 18:00N 51°48' W 007°18'1634.0 250 / 71023.810.8 17.011.511.0
2017-May-27 17:31N 51°48' W 007°45'1019.7
2017-May-27 17:01N 51°45' W 008°00'917.3
2017-May-27 16:30N 51°45' W 008°14'510.2
2017-May-27 16:00N 51°50' W 008°16'1 2.9
2017-May-27 15:30N 51°51' W 008°18'0 0.0
2017-May-27 15:00N 51°51' W 008°18'0 0.0
2017-May-27 14:30N 51°51' W 008°18'0 0.0
2017-May-27 13:30N 51°51' W 008°18'0 0.0
2017-May-27 13:00N 51°51' W 008°18'0 0.0
2017-May-27 12:30N 51°51' W 008°18'0 0.0
2017-May-27 12:00N 51°51' W 008°18'0 0.0
2017-May-27 11:30N 51°51' W 008°18'0 0.0
2017-May-27 11:00N 51°51' W 008°18'0 0.0
2017-May-27 10:30N 51°51' W 008°18'0 0.0
2017-May-27 09:59N 51°51' W 008°18'0 0.0
2017-May-27 09:28N 51°51' W 008°18'0 0.0
2017-May-27 08:58N 51°51' W 008°18'0 0.0
2017-May-27 08:28N 51°51' W 008°18'0 0.0
2017-May-27 07:58N 51°51' W 008°18'0 0.0
2017-May-27 07:28N 51°51' W 008°18'0 0.0
2017-May-27 06:58N 51°51' W 008°18'0 0.5
2017-May-27 06:30N 51°51' W 008°18'3 5.1
2017-May-27 06:00N 51°49' W 008°16'612.3
2017-May-27 05:30N 51°43' W 008°13'1019.1
2017-May-27 05:00N 51°36' W 008°02'918.8
2017-May-27 04:30N 51°30' W 007°51'918.7
2017-May-27 04:00N 51°23' W 007°40'5219.2
2017-May-27 01:17N 50°48' W 006°39'3119.3
2017-May-26 23:40N 50°26' W 006°04'419.6
2017-May-26 23:29N 50°24' W 005°59'918.1
2017-May-26 23:00N 50°16' W 005°54'1019.1
2017-May-26 22:30N 50°06' W 005°54'918.8
2017-May-26 22:00N 49°57' W 005°53'10995.2
2017-May-26 22:00N 50°06' W 005°48'1725.9 300 / 141009.510.8 14.012.211.0
2017-May-26 21:21N 49°51' W 005°38'919.9
2017-May-26 20:53N 49°48' W 005°24'919.6
2017-May-26 20:26N 49°47' W 005°11'919.3
2017-May-26 20:00N 49°45' W 004°58'919.0
2017-May-26 19:30N 49°43' W 004°44'1218.8
2017-May-26 18:51N 49°41' W 004°25'818.4
2017-May-26 18:23N 49°40' W 004°12'718.4
2017-May-26 18:00N 49°38' W 004°02'918.1
2017-May-26 17:30N 49°35' W 003°48'918.4
2017-May-26 17:00N 49°32' W 003°35'918.6
2017-May-26 16:30N 49°30' W 003°21'918.9
2017-May-26 16:00N 49°28' W 003°07'24 6.7
2017-May-26 12:26N 49°28' W 002°30'0 0.1
2017-May-26 11:56N 49°28' W 002°30'0 0.1
2017-May-26 11:11N 49°28' W 002°30'0 0.0
2017-May-26 10:59N 49°28' W 002°30'0 0.0
2017-May-26 10:10N 49°28' W 002°30'0 0.0
2017-May-26 09:53N 49°28' W 002°30'0 0.1
2017-May-26 09:30N 49°28' W 002°30'0 0.0
2017-May-26 04:36N 49°28' W 002°30'0 1.0
2017-May-26 04:30N 49°28' W 002°30'7 8.2
2017-May-26 03:38N 49°23' W 002°39'416.4
2017-May-26 03:25N 49°23' W 002°44'2615.1
2017-May-26 01:42N 49°48' W 002°56'315.1
2017-May-26 01:30N 49°50' W 002°57'714.3
2017-May-26 01:01N 49°57' W 002°55'6326.2
2017-May-26 01:00N 49°54' W 002°48'714.9 100 / 301017.110.8 13.5 5.716.0
2017-May-26 00:30N 49°60' W 002°42'1019.2
2017-May-26 00:00N 50°02' W 002°27'1019.7
2017-May-25 23:30N 50°07' W 002°14'1018.8
2017-May-25 23:00N 50°12' W 002°01'1017.8
2017-May-25 22:27N 50°17' W 001°47'612.8
2017-May-25 22:00N 50°12' W 001°42'10145.5 090 / 211018.910.8 15.010.312.0
2017-May-25 21:55N 50°21' W 001°35'716.1
2017-May-25 21:30N 50°24' W 001°25'815.5
2017-May-25 21:01N 50°28' W 001°15'714.3
2017-May-25 20:31N 50°31' W 001°05'713.1
2017-May-25 20:01N 50°37' W 000°59'612.0
2017-May-25 19:30N 50°43' W 000°59'816.5
2017-May-25 19:00N 50°46' W 001°11'510.5
2017-May-25 18:30N 50°49' W 001°18'510.1
2017-May-25 18:00N 50°52' W 001°23'1 2.4
2017-May-25 17:30N 50°53' W 001°24'0 0.0
2017-May-25 17:00N 50°53' W 001°24'0 0.0
2017-May-25 16:30N 50°53' W 001°24'0 0.0
2017-May-25 16:00N 50°53' W 001°24'0 0.0
2017-May-25 15:30N 50°53' W 001°24'0 0.0
2017-May-25 15:00N 50°53' W 001°24'0 0.0
2017-May-25 14:00N 50°53' W 001°24'0 0.0
2017-May-25 13:30N 50°53' W 001°24'0 0.0
2017-May-25 13:00N 50°53' W 001°24'0 0.0
2017-May-25 12:30N 50°53' W 001°24'0 0.0
2017-May-25 12:00N 50°53' W 001°24'0 0.0
2017-May-25 11:30N 50°53' W 001°24'0 0.0
2017-May-25 10:59N 50°53' W 001°24'0 0.0
2017-May-25 10:29N 50°53' W 001°24'0 0.0
2017-May-25 09:56N 50°53' W 001°24'0 0.0
2017-May-25 09:29N 50°53' W 001°24'0 0.0
2017-May-25 08:59N 50°53' W 001°24'0 0.0
2017-May-25 08:29N 50°53' W 001°24'0 0.0
2017-May-25 07:59N 50°53' W 001°24'0 0.0
2017-May-25 07:29N 50°53' W 001°24'0 0.0
2017-May-25 06:59N 50°53' W 001°24'0 0.0
2017-May-25 06:29N 50°53' W 001°24'0 0.0
2017-May-25 05:58N 50°53' W 001°24'0 0.0
2017-May-25 05:28N 50°53' W 001°24'0 0.0
2017-May-25 04:58N 50°53' W 001°24'0 0.0
2017-May-25 04:28N 50°53' W 001°24'0 0.3
2017-May-25 04:01N 50°53' W 001°24'2 3.2
2017-May-25 03:30N 50°52' W 001°22'5 9.5
2017-May-25 03:01N 50°49' W 001°17'4 8.5
2017-May-25 02:31N 50°46' W 001°12'714.8
2017-May-25 02:00N 50°43' W 001°01'510.7
2017-May-25 01:30N 50°38' W 000°58'713.4
2017-May-25 01:01N 50°32' W 000°57'815.5
2017-May-25 00:31N 50°25' W 000°50'612.8
2017-May-25 00:00N 50°19' W 000°47'814.9
2017-May-24 23:29N 50°12' W 000°43'815.5
2017-May-24 23:00N 50°05' W 000°38'715.3
2017-May-24 22:30N 49°58' W 000°34'714.9
2017-May-24 22:00N 49°51' W 000°29'714.6
2017-May-24 21:30N 49°44' W 000°25'714.4
2017-May-24 21:01N 49°38' W 000°20'713.3
2017-May-24 20:30N 49°33' W 000°13'612.4
2017-May-24 20:00N 49°31' W 000°04'612.6
2017-May-24 19:30N 49°29' E 000°05'1 1.7
2017-May-24 19:00N 49°29' E 000°06'0 0.0
2017-May-24 18:30N 49°29' E 000°06'0 0.0
2017-May-24 18:00N 49°29' E 000°06'0 0.0
2017-May-24 17:30N 49°29' E 000°06'0 0.0
2017-May-24 17:00N 49°29' E 000°06'0 0.0
2017-May-24 16:30N 49°29' E 000°06'0 0.0
2017-May-24 16:00N 49°29' E 000°06'0 0.0
2017-May-24 15:29N 49°29' E 000°06'0 0.0
2017-May-24 14:59N 49°29' E 000°06'0 0.0
2017-May-24 14:30N 49°29' E 000°06'0 0.0
2017-May-24 13:30N 49°29' E 000°06'0 0.0
2017-May-24 13:00N 49°29' E 000°06'0 0.0
2017-May-24 12:30N 49°29' E 000°06'0 0.0
2017-May-24 11:58N 49°29' E 000°06'0 0.0
2017-May-24 11:30N 49°29' E 000°06'0 0.0
2017-May-24 11:00N 49°29' E 000°06'0 0.0
2017-May-24 10:30N 49°29' E 000°06'0 0.0
2017-May-24 10:00N 49°29' E 000°06'0 0.0
2017-May-24 09:27N 49°29' E 000°06'0 0.0
2017-May-24 08:58N 49°29' E 000°06'0 0.0
2017-May-24 08:28N 49°29' E 000°06'0 0.0
2017-May-24 07:57N 49°29' E 000°06'0 0.0
2017-May-24 07:29N 49°29' E 000°06'0 0.0
2017-May-24 06:59N 49°29' E 000°06'0 0.0
2017-May-24 06:28N 49°29' E 000°06'0 0.0
2017-May-24 05:58N 49°29' E 000°06'0 0.0
2017-May-24 05:27N 49°29' E 000°06'0 0.0
2017-May-24 05:00N 49°29' E 000°06'0 0.2
2017-May-24 04:30N 49°29' E 000°07'0 0.8
2017-May-24 04:00N 49°29' E 000°06'510.6
2017-May-24 03:30N 49°31' W 000°02'611.1
2017-May-24 03:00N 49°32' W 000°10'510.9
2017-May-24 02:30N 49°34' W 000°18'917.2
2017-May-24 02:00N 49°42' W 000°22'917.4
2017-May-24 01:30N 49°51' W 000°21'918.4
2017-May-24 01:00N 49°60' W 000°16'918.7
2017-May-24 00:30N 50°07' W 000°07'917.7
2017-May-24 00:00N 50°16' W 000°04'917.6
2017-May-23 23:30N 50°24' W 000°06'917.4
2017-May-23 23:00N 50°29' E 000°06'815.3
2017-May-23 22:30N 50°31' E 000°18'714.5
2017-May-23 22:00N 50°33' E 000°29'713.5
2017-May-23 21:30N 50°36' E 000°38'713.4
2017-May-23 20:59N 50°40' E 000°47'613.2
2017-May-23 20:30N 50°44' E 000°55'713.2
2017-May-23 20:00N 50°48' E 001°04'613.2
2017-May-23 19:30N 50°52' E 001°12'714.2
2017-May-23 19:00N 50°57' E 001°20'816.0
2017-May-23 18:30N 51°02' E 001°29'917.4
2017-May-23 18:00N 51°09' E 001°38'816.8
2017-May-23 17:30N 51°15' E 001°47'816.5
2017-May-23 17:00N 51°23' E 001°51'815.2
2017-May-23 16:30N 51°31' E 001°52'714.9
2017-May-23 16:01N 51°37' E 001°47'714.5
2017-May-23 15:31N 51°44' E 001°45'714.2
2017-May-23 15:00N 51°51' E 001°45'713.4
2017-May-23 14:30N 51°58' E 001°45'2038.7
2017-May-23 14:00N 52°18' E 001°48'715.1 210 / 271020.710.8 15.2-4.112.0
2017-May-23 13:30N 52°11' E 001°47'2212.2
2017-May-23 11:43N 52°32' E 001°56'312.2
2017-May-23 11:30N 52°34' E 001°57'612.3
2017-May-23 11:00N 52°40' E 001°57'612.4
2017-May-23 10:30N 52°45' E 001°51'713.3
2017-May-23 10:00N 52°51' E 001°45'713.7
2017-May-23 09:30N 52°56' E 001°36'816.5
2017-May-23 09:00N 53°03' E 001°30'917.3
2017-May-23 08:30N 53°10' E 001°21'917.4
2017-May-23 08:00N 53°17' E 001°14'917.4
2017-May-23 07:30N 53°25' E 001°06'3624.0
2017-May-23 06:00N 53°54' E 000°30'2 4.4 260 / 201016.310.8 14.0 8.010.0
2017-May-23 05:26N 53°55' E 000°34'818.2
2017-May-23 05:00N 54°02' E 000°27'918.5
2017-May-23 04:30N 54°09' E 000°18'918.7
2017-May-23 04:00N 54°17' E 000°10'918.9
2017-May-23 03:30N 54°25' E 000°01'1019.1
2017-May-23 03:00N 54°33' W 000°08'1019.2
2017-May-23 02:30N 54°41' W 000°17'1019.1
2017-May-23 02:00N 54°49' W 000°26'1019.0
2017-May-23 01:30N 54°57' W 000°36'1019.1
2017-May-23 01:00N 55°05' W 000°45'7681.0
2017-May-23 01:00N 55°12' W 000°48'4 7.2 270 / 211012.510.8 11.6 6.111.0
2017-May-23 00:30N 55°13' W 000°54'918.9
2017-May-23 00:00N 55°21' W 001°04'918.8
2017-May-22 23:30N 55°29' W 001°12'918.9
2017-May-22 23:00N 55°37' W 001°21'918.6
2017-May-22 22:30N 55°44' W 001°31'918.5
2017-May-22 22:01N 55°51' W 001°42'9555.8
2017-May-22 22:00N 55°42' W 001°36'1837.6 270 / 291011.2 5.4 12.0 7.9 9.0
2017-May-22 21:30N 55°57' W 001°53'1017.5
2017-May-22 20:57N 56°03' W 002°07'817.9
2017-May-22 20:30N 56°06' W 002°21'917.5
2017-May-22 20:00N 56°07' W 002°36'917.5
2017-May-22 19:30N 56°05' W 002°52'816.2
2017-May-22 19:00N 56°03' W 003°05'713.0
2017-May-22 18:30N 56°02' W 003°17'3 0.7
2017-May-22 13:36N 56°00' W 003°23'0 0.1
2017-May-22 13:18N 56°00' W 003°23'0 0.1
2017-May-22 12:51N 56°00' W 003°23'0 0.1
2017-May-22 12:30N 56°00' W 003°23'0 0.0
2017-May-22 12:00N 56°00' W 003°23'0 0.0
2017-May-22 11:21N 56°00' W 003°23'0 0.0
2017-May-22 10:51N 56°00' W 003°23'0 0.1
2017-May-22 10:30N 56°00' W 003°23'0 0.0
2017-May-22 10:00N 56°00' W 003°23'0 0.0
2017-May-22 09:17N 56°00' W 003°23'0 0.1
2017-May-22 08:59N 56°00' W 003°23'0 0.0
2017-May-22 08:20N 56°00' W 003°23'0 0.0
2017-May-22 07:59N 56°00' W 003°23'0 0.0
2017-May-22 07:23N 56°00' W 003°23'0 0.1
2017-May-22 06:18N 56°00' W 003°22'2 7.1
2017-May-22 06:00N 56°01' W 003°19'713.9
2017-May-22 05:30N 56°03' W 003°07'611.1
2017-May-22 05:00N 56°05' W 002°58'612.6
2017-May-22 04:30N 56°07' W 002°47'612.5
2017-May-22 04:01N 56°09' W 002°36'714.7
2017-May-22 03:31N 56°13' W 002°25'917.2
2017-May-22 03:01N 56°20' W 002°17'917.0
2017-May-22 02:31N 56°28' W 002°09'817.0
2017-May-22 02:01N 56°35' W 002°02'816.9
2017-May-22 01:31N 56°43' W 001°56'1117.2
2017-May-22 00:53N 56°53' W 001°48'717.3
2017-May-22 00:30N 56°59' W 001°43'817.4
2017-May-22 00:01N 57°07' W 001°39'917.4
2017-May-21 23:30N 57°15' W 001°36'917.8
2017-May-21 23:01N 57°24' W 001°36'918.3
2017-May-21 22:31N 57°33' W 001°36'918.5
2017-May-21 22:01N 57°43' W 001°39'713.8
2017-May-21 21:30N 57°47' W 001°50'918.9
2017-May-21 21:00N 57°47' W 002°07'4422.0
2017-May-21 19:00N 57°42' W 003°30'15 0.9 180 / 111021.710.8 15.0 6.910.0
2017-May-21 01:00N 57°54' W 003°12'26 8.7 200 / 181014.310.8 9.4 5.710.0
2017-May-20 22:00N 58°12' W 002°36'6215.2 170 / 221012.610.8 10.0 7.910.0
2017-May-20 21:58N 58°17' W 002°40'6 9.3
2017-May-20 21:19N 58°23' W 002°38'3 9.3
2017-May-20 21:00N 58°26' W 002°38'5 8.2
2017-May-20 20:22N 58°31' W 002°40'4 9.3
2017-May-20 19:59N 58°33' W 002°46'612.3
2017-May-20 19:30N 58°38' W 002°53'815.9
2017-May-20 19:00N 58°43' W 003°05'816.3
2017-May-20 18:31N 58°43' W 003°21'815.6
2017-May-20 18:00N 58°43' W 003°36'815.6
2017-May-20 17:30N 58°43' W 003°51'815.3
2017-May-20 17:00N 58°43' W 004°06'815.3
2017-May-20 16:30N 58°43' W 004°20'815.6
2017-May-20 16:00N 58°43' W 004°35'815.5
2017-May-20 15:30N 58°43' W 004°50'1913.0
2017-May-20 14:00N 58°32' W 005°22'3115.7
2017-May-20 12:04N 58°06' W 005°51'215.3
2017-May-20 11:57N 58°04' W 005°52'715.5
2017-May-20 11:30N 57°58' W 005°59'7213.1
2017-May-20 06:00N 56°54' W 007°00'5716.7 360 / 101009.710.8 10.0 7.911.0
2017-May-20 02:35N 55°57' W 007°09'116.5
2017-May-20 02:30N 55°56' W 007°08'  

Dump ship's entire track history